TimeMYT,TemperatureF,Dew PointF,Humidity,Sea Level PressureIn,VisibilityMPH,Wind Direction,Wind SpeedMPH,Gust SpeedMPH,PrecipitationIn,Events,Conditions,WindDirDegrees,DateUTC
12:00 AM,77.0,75.2,94,29.80,6.2,North,2.3,-,N/A,,Mostly Cloudy,350,2013-12-01 16:00:00
1:00 AM,77.0,75.2,94,29.80,6.2,North,3.5,-,N/A,,Mostly Cloudy,360,2013-12-01 17:00:00
2:00 AM,76,74,93,29.78,7,North,2.3,,,,Partly Cloudy,0,2013-12-01 18:00:00
2:00 AM,77.0,75.2,94,29.77,6.2,North,2.3,-,N/A,,Mostly Cloudy,360,2013-12-01 18:00:00
3:00 AM,75.2,73.4,94,29.74,6.2,NNW,3.5,-,N/A,,Mostly Cloudy,340,2013-12-01 19:00:00
4:00 AM,75.2,73.4,94,29.74,6.2,NW,3.5,-,N/A,,Mostly Cloudy,320,2013-12-01 20:00:00
5:00 AM,75,73,92,29.76,7,WNW,3.5,,,,Partly Cloudy,300,2013-12-01 21:00:00
5:00 AM,75.2,73.4,94,29.74,6.2,WNW,3.5,-,N/A,,Mostly Cloudy,300,2013-12-01 21:00:00
6:00 AM,75.2,73.4,94,29.77,6.2,NNW,4.6,-,N/A,,Mostly Cloudy,340,2013-12-01 22:00:00
7:00 AM,77.0,75.2,94,29.77,6.2,NNW,3.5,-,N/A,,Mostly Cloudy,340,2013-12-01 23:00:00
8:00 AM,82,76,78,29.82,7,NW,3.5,,,,Scattered Clouds,320,2013-12-02 00:00:00
8:00 AM,82.4,77.0,84,29.80,6.2,NW,3.5,-,N/A,,Mostly Cloudy,320,2013-12-02 00:00:00
9:00 AM,86.0,77.0,74,29.80,6.2,NNE,2.3,-,N/A,,Mostly Cloudy,30,2013-12-02 01:00:00
10:00 AM,86.0,77.0,74,29.80,6.2,NNE,3.5,-,N/A,,Mostly Cloudy,30,2013-12-02 02:00:00
11:00 AM,83,78,82,29.82,2,East,9.2,,,Rain,Heavy Rain Showers,90,2013-12-02 03:00:00
11:00 AM,82.4,78.8,89,29.80,2.5,East,9.2,-,N/A,Rain,Rain Showers,90,2013-12-02 03:00:00
12:00 PM,86.0,78.8,79,29.77,6.2,SW,3.5,-,N/A,Thunderstorm,Thunderstorm,230,2013-12-02 04:00:00
1:00 PM,82.4,77.0,84,29.77,6.2,NNW,8.1,-,N/A,,Mostly Cloudy,340,2013-12-02 05:00:00
2:00 PM,81,78,87,29.75,6,NNW,5.8,,,Rain,Light Rain Showers,330,2013-12-02 06:00:00
2:00 PM,80.6,77.0,89,29.74,6.2,NNW,5.8,-,N/A,,Mostly Cloudy,330,2013-12-02 06:00:00
3:00 PM,84.2,78.8,84,29.71,6.2,NNE,2.3,-,N/A,Rain,Light Rain Showers,20,2013-12-02 07:00:00
4:00 PM,86.0,78.8,79,29.71,6.2,SE,4.6,-,N/A,,Mostly Cloudy,130,2013-12-02 08:00:00
5:00 PM,85,75,65,29.73,7,ESE,8.1,,,,Partly Cloudy,110,2013-12-02 09:00:00
5:00 PM,84.2,77.0,79,29.71,6.2,ESE,8.1,-,N/A,,Mostly Cloudy,110,2013-12-02 09:00:00
6:00 PM,80.6,77.0,89,29.74,6.2,North,3.5,-,N/A,,Mostly Cloudy,360,2013-12-02 10:00:00
7:00 PM,78.8,77.0,94,29.77,5.6,SE,12.7,-,N/A,Rain,Light Rain,130,2013-12-02 11:00:00
8:00 PM,78,76,94,29.81,7,NW,2.3,,,Rain,Light Rain,320,2013-12-02 12:00:00
8:00 PM,78.8,77.0,94,29.80,6.2,NW,2.3,-,N/A,,Mostly Cloudy,320,2013-12-02 12:00:00
9:00 PM,78.8,77.0,94,29.80,6.2,NNE,2.3,-,N/A,,Mostly Cloudy,20,2013-12-02 13:00:00
10:00 PM,77.0,77.0,100,29.83,6.2,NNW,4.6,-,N/A,,Mostly Cloudy,330,2013-12-02 14:00:00
11:00 PM,77,76,94,29.83,6,North,3.5,,,,Mist,350,2013-12-02 15:00:00
11:00 PM,77.0,75.2,94,29.83,6.2,North,3.5,-,N/A,,Mostly Cloudy,350,2013-12-02 15:00:00